M I D A S
Marine Information and Data Acquisition System
Tripno 1781 of the Zeeleeuw from 2009-09-21 06:46:06 to 2009-09-21 15:45:26
Back to CruiseResearch ActivitiesStationsMapUnderway DataData graphs

EquipmentUnitsComment
TimeDGPSUTC
LatitudeDGPSDM.mWGS84
LongitudeDGPSDM.mWGS84
HeadingGyrodeg 
SOGDGPSknotsSpeed over ground
COGDGPSdegCourse over ground
DepthEcho soundermeters200 kHz
Missing or incorrect values are displayed as -999
Navigation data collected by the RV Zeeleeuw from 2009-09-21 06:50:00 to 2009-09-21 15:55:05
Time Latitude Longitude Heading SOG COG Depth
2009-09-21 06:51:09 51°13.679 2°55.887 110.7 3.7 291 -999
2009-09-21 06:52:09 51°13.693 2°55.794 92.5 3.2 276 -999
2009-09-21 06:53:08 51°13.694 2°55.739 70.5 0.6 291 11.8
2009-09-21 06:54:06 51°13.709 2°55.743 13.2 0.5 348 11.7
2009-09-21 06:55:05 51°13.707 2°55.737 341.2 1.3 333 11.4
2009-09-21 06:56:05 51°13.758 2°55.69 331.6 4.7 330 10.2
2009-09-21 06:57:05 51°13.829 2°55.634 342.5 4.4 342 10.3
2009-09-21 06:58:05 51°13.886 2°55.625 9 2.8 6 9.2
2009-09-21 06:59:05 51°13.926 2°55.635 9.4 2.1 6 9.7
2009-09-21 07:00:05 51°13.954 2°55.633 351.5 1.1 352 9.5
2009-09-21 07:01:06 51°13.953 2°55.635 342.8 0.4 161 -999
2009-09-21 07:02:05 51°13.95 2°55.636 338 0.2 166 9.4
2009-09-21 07:03:05 51°13.949 2°55.636 332.3 0.7 334 9.5
2009-09-21 07:04:05 51°13.993 2°55.592 328.8 5.4 328 10.1
2009-09-21 07:05:05 51°14.096 2°55.471 326.2 9.1 324 9.7
2009-09-21 07:06:05 51°14.222 2°55.308 320 9.9 316 9.6
2009-09-21 07:07:05 51°14.337 2°55.103 310.2 10.9 308 9.5
2009-09-21 07:08:05 51°14.465 2°54.893 328.9 11.3 325 8.9
2009-09-21 07:09:05 51°14.621 2°54.717 334 11.4 325 8.4
2009-09-21 07:10:05 51°14.777 2°54.547 336.2 11.3 329 8.2
2009-09-21 07:11:05 51°14.937 2°54.395 337.2 11.1 329 7.1
2009-09-21 07:12:05 51°15.096 2°54.249 338.3 11.2 329 8
2009-09-21 07:13:05 51°15.258 2°54.097 337.9 11.3 329 9.3
2009-09-21 07:14:05 51°15.42 2°53.944 338.2 11.4 329 9.6
2009-09-21 07:15:05 51°15.582 2°53.789 338.5 11.4 330 9.7
2009-09-21 07:16:05 51°15.747 2°53.633 338 11.5 329 9.9
2009-09-21 07:17:05 51°15.912 2°53.478 338.5 11.6 330 10
2009-09-21 07:18:05 51°16.079 2°53.325 339.6 11.5 331 10.3
2009-09-21 07:19:05 51°16.245 2°53.17 338.8 11.5 330 10.6
2009-09-21 07:20:05 51°16.41 2°53.018 338.3 11.4 330 10.4
2009-09-21 07:21:05 51°16.575 2°52.87 340.5 11.4 332 10.1
2009-09-21 07:22:05 51°16.743 2°52.734 341.4 11.2 335 8.6
2009-09-21 07:23:05 51°16.91 2°52.612 344.2 11 338 8.4
2009-09-21 07:24:05 51°17.08 2°52.506 346.2 11 339 8.3
2009-09-21 07:25:05 51°17.25 2°52.399 345 11 338 8.7
2009-09-21 07:26:05 51°17.421 2°52.29 345.3 11.1 337 9
2009-09-21 07:27:05 51°17.593 2°52.178 345.4 11.1 338 9.8
2009-09-21 07:28:05 51°17.763 2°52.069 345.7 11 339 9.3
2009-09-21 07:29:05 51°17.934 2°51.958 345.6 11.1 337 8.8
2009-09-21 07:30:05 51°18.105 2°51.846 345.6 11.2 338 9.4
2009-09-21 07:31:05 51°18.279 2°51.732 345.3 11.2 338 10.2
2009-09-21 07:32:05 51°18.452 2°51.616 345.4 11.4 338 11
2009-09-21 07:33:05 51°18.626 2°51.498 345.4 11.4 337 12.1
2009-09-21 07:34:05 51°18.798 2°51.38 345.2 11.3 337 12.9
2009-09-21 07:35:05 51°18.97 2°51.261 345.4 11.4 336 13.3
2009-09-21 07:36:05 51°19.144 2°51.141 345.4 11.4 336 13.4
2009-09-21 07:37:05 51°19.316 2°51.018 345.1 11.4 336 13.3
2009-09-21 07:38:05 51°19.491 2°50.901 347.7 11.4 339 12.3
2009-09-21 07:39:05 51°19.666 2°50.782 345 11.3 335 11
2009-09-21 07:40:05 51°19.836 2°50.652 344.5 11.4 335 10.8
2009-09-21 07:41:05 51°20.008 2°50.523 344.9 11.5 335 13.2
2009-09-21 07:42:05 51°20.183 2°50.396 345.4 11.6 336 14.5
2009-09-21 07:43:05 51°20.358 2°50.27 345.5 11.5 336 16.6
2009-09-21 07:44:05 51°20.53 2°50.144 344.8 11.3 335 19.1
2009-09-21 07:45:05 51°20.701 2°50.022 347.5 11.2 337 21
2009-09-21 07:46:05 51°20.872 2°49.901 345 11.3 335 21.7
2009-09-21 07:47:05 51°21.045 2°49.776 346.2 11.4 336 21.5
2009-09-21 07:48:05 51°21.219 2°49.652 345.8 11.5 336 20.6
2009-09-21 07:49:05 51°21.394 2°49.525 345.5 11.6 335 20.3
2009-09-21 07:50:05 51°21.568 2°49.39 343.5 11.7 334 20.6
2009-09-21 07:51:05 51°21.744 2°49.256 343.9 11.7 335 21.5
2009-09-21 07:52:05 51°21.921 2°49.125 344.5 11.7 335 21.5
2009-09-21 07:53:05 51°22.1 2°48.996 345.7 11.8 337 21.9
2009-09-21 07:54:05 51°22.28 2°48.868 345.2 11.8 337 21.3
2009-09-21 07:55:06 51°22.46 2°48.741 344.8 11.6 337 19.4
2009-09-21 07:56:05 51°22.633 2°48.623 345.3 11.3 337 13.8
2009-09-21 07:57:05 51°22.806 2°48.506 346.7 11.3 339 17.8
2009-09-21 07:58:05 51°22.979 2°48.389 346.9 11.3 338 17.9
2009-09-21 07:59:05 51°23.154 2°48.274 346.5 11.3 337 19.1
2009-09-21 08:00:05 51°23.325 2°48.147 345 11.3 335 19.7
2009-09-21 08:01:05 51°23.497 2°48.018 344.4 11.4 334 19.7
2009-09-21 08:02:05 51°23.671 2°47.892 346.4 11.5 336 18.6
2009-09-21 08:03:05 51°23.844 2°47.763 345.6 11.4 336 22
2009-09-21 08:04:05 51°24.018 2°47.637 345.6 11.4 336 22.3
2009-09-21 08:05:05 51°24.191 2°47.51 345.7 11.4 335 20.9
2009-09-21 08:06:05 51°24.363 2°47.381 345.6 11.4 334 25.7
2009-09-21 08:07:05 51°24.536 2°47.253 345.7 11.4 335 28.9
2009-09-21 08:08:05 51°24.707 2°47.123 345 11.4 334 28.8
2009-09-21 08:09:05 51°24.878 2°46.991 344.4 11.3 333 27.1
2009-09-21 08:10:05 51°25.047 2°46.862 345.6 11.2 335 23.7
2009-09-21 08:11:05 51°25.216 2°46.735 345.3 11.2 335 23.7
2009-09-21 08:12:05 51°25.385 2°46.608 345.5 11.3 335 24.2
2009-09-21 08:13:05 51°25.554 2°46.48 344.3 11.2 335 23.3
2009-09-21 08:14:05 51°25.721 2°46.35 345.3 11.2 334 22.2
2009-09-21 08:15:05 51°25.889 2°46.223 345.6 11.1 336 23.2
2009-09-21 08:16:05 51°26.058 2°46.1 345.9 11.2 336 23.7
2009-09-21 08:17:05 51°26.227 2°45.975 345 11.3 335 22.9
2009-09-21 08:18:05 51°26.398 2°45.851 345.6 11.2 336 26.1
2009-09-21 08:19:05 51°26.567 2°45.728 345.4 11.1 336 27.4
2009-09-21 08:20:05 51°26.733 2°45.601 345.1 11.1 334 27.5
2009-09-21 08:21:06 51°26.902 2°45.469 344.3 11.2 332 27.9
2009-09-21 08:22:05 51°27.065 2°45.339 345.9 11 335 26.2
2009-09-21 08:23:05 51°27.231 2°45.21 345.5 11.1 335 27.5
2009-09-21 08:24:05 51°27.396 2°45.075 344.4 11.1 334 25.7
2009-09-21 08:25:05 51°27.561 2°44.938 343.6 11.2 333 26.2
2009-09-21 08:26:05 51°27.729 2°44.808 346 11.2 334 26.8
2009-09-21 08:27:05 51°27.898 2°44.679 344.6 11.3 334 26.4
2009-09-21 08:28:05 51°28.068 2°44.548 345.9 11.4 335 25.6
2009-09-21 08:29:05 51°28.239 2°44.418 344.3 11.4 334 25.1
2009-09-21 08:30:05 51°28.408 2°44.283 343.5 11.4 334 29.4
2009-09-21 08:31:05 51°28.579 2°44.159 346.2 11.2 337 26.8
2009-09-21 08:32:05 51°28.749 2°44.041 346 11 337 28.7
2009-09-21 08:33:05 51°28.914 2°43.925 345.4 10.7 336 28.9
2009-09-21 08:34:05 51°29.077 2°43.806 345.3 10.7 334 28.2
2009-09-21 08:35:06 51°29.243 2°43.714 0.6 10.2 349 27.4
2009-09-21 08:36:06 51°29.409 2°43.701 7.4 10 359 28.8
2009-09-21 08:37:06 51°29.575 2°43.695 7.5 10 358 29.6
2009-09-21 08:38:06 51°29.739 2°43.712 14.2 9.8 6 30.2
2009-09-21 08:39:06 51°29.903 2°43.745 15.5 9.9 8 31
2009-09-21 08:40:06 51°30.061 2°43.804 22 9.8 17 29.1
2009-09-21 08:41:06 51°30.217 2°43.877 24.2 9.7 18 32.6
2009-09-21 08:42:06 51°30.369 2°43.971 25.5 9.8 19 31
2009-09-21 08:43:06 51°30.519 2°44.061 26.2 9.5 21 30.7
2009-09-21 08:44:06 51°30.669 2°44.149 24.7 9.6 18 29.9
2009-09-21 08:45:06 51°30.821 2°44.234 24.1 9.6 17 31.2
2009-09-21 08:46:06 51°30.972 2°44.316 24.2 9.6 17 32.6
2009-09-21 08:47:06 51°31.125 2°44.401 25.6 9.7 19 30.2
2009-09-21 08:48:06 51°31.276 2°44.481 24.3 9.5 18 33.1
2009-09-21 08:49:07 51°31.43 2°44.56 24.4 9.5 17 32.6
2009-09-21 08:50:15 51°31.601 2°44.655 25.4 9.6 19 31
2009-09-21 08:51:15 51°31.753 2°44.734 25.3 9.6 18 33.9
2009-09-21 08:52:15 51°31.905 2°44.812 24.6 9.6 18 33.1
2009-09-21 08:53:15 51°32.057 2°44.892 24.7 9.6 18 35.3
2009-09-21 08:54:15 51°32.209 2°44.976 26.1 9.6 20 34.6
2009-09-21 08:55:16 51°32.363 2°45.066 25.7 9.7 19 32.2
2009-09-21 08:56:15 51°32.511 2°45.156 26.6 9.7 22 34.5
2009-09-21 08:57:15 51°32.662 2°45.244 24.4 9.6 19 31.4
2009-09-21 08:58:15 51°32.815 2°45.326 24 9.7 19 33.2
2009-09-21 08:59:15 51°32.969 2°45.406 23.6 9.7 19 30.8
2009-09-21 09:00:15 51°33.123 2°45.487 22.9 9.7 17 31.4
2009-09-21 09:01:15 51°33.277 2°45.565 22.4 9.7 18 31
2009-09-21 09:02:15 51°33.43 2°45.645 23.6 9.7 19 30
2009-09-21 09:03:15 51°33.583 2°45.723 23.3 9.7 19 29.2
2009-09-21 09:04:15 51°33.735 2°45.803 24.2 9.5 19 29.9
2009-09-21 09:05:15 51°33.885 2°45.891 24.4 9.5 20 30.3
2009-09-21 09:06:16 51°34.034 2°45.989 27.1 9.5 23 30
2009-09-21 09:07:15 51°34.18 2°46.075 24.6 9.5 21 31
2009-09-21 09:08:15 51°34.328 2°46.162 25.5 9.5 21 32.8
2009-09-21 09:09:15 51°34.474 2°46.257 26.9 9.4 23 32
2009-09-21 09:10:15 51°34.62 2°46.347 25.1 9.4 20 31.8
2009-09-21 09:11:16 51°34.77 2°46.436 25.9 9.4 22 31.8
2009-09-21 09:12:15 51°34.913 2°46.525 25.8 9.4 21 32.6
2009-09-21 09:13:15 51°35.059 2°46.614 26 9.3 21 32.7
2009-09-21 09:14:15 51°35.205 2°46.695 23.8 9.3 17 32.9
2009-09-21 09:15:15 51°35.352 2°46.775 24.6 9.4 19 33.6
2009-09-21 09:16:15 51°35.499 2°46.857 24.8 9.4 20 34.2
2009-09-21 09:17:15 51°35.645 2°46.942 25.5 9.4 20 34.2
2009-09-21 09:18:16 51°35.794 2°47.032 26.8 9.4 22 34.6
2009-09-21 09:19:15 51°35.935 2°47.122 26 9.2 21 34.1
2009-09-21 09:20:16 51°36.08 2°47.21 25.5 9.1 21 35.5
2009-09-21 09:21:15 51°36.221 2°47.291 26.1 9.1 20 34.3
2009-09-21 09:22:16 51°36.365 2°47.378 25.1 9.1 20 34.6
2009-09-21 09:23:15 51°36.506 2°47.462 26.7 9.1 23 34.6
2009-09-21 09:24:15 51°36.647 2°47.558 27.8 9.1 25 33.8
2009-09-21 09:25:15 51°36.787 2°47.657 28 9.2 24 34.8
2009-09-21 09:26:15 51°36.928 2°47.754 26.9 9.2 22 35.4
2009-09-21 09:27:16 51°37.074 2°47.845 25.9 9.2 20 35.2
2009-09-21 09:28:15 51°37.213 2°47.94 28.6 9.2 27 34.8
2009-09-21 09:29:16 51°37.352 2°48.053 31.1 9.3 27 34.2
2009-09-21 09:30:15 51°37.484 2°48.168 32 9.3 29 34.3
2009-09-21 09:31:16 51°37.622 2°48.287 30.9 9.2 28 34.9
2009-09-21 09:32:15 51°37.756 2°48.402 30.6 9.2 27 34.5
2009-09-21 09:33:16 51°37.892 2°48.522 32.2 9.2 30 35.3
2009-09-21 09:34:15 51°38.026 2°48.638 30 9.3 27 35.7
2009-09-21 09:35:15 51°38.164 2°48.752 30 9.3 26 36.2
2009-09-21 09:36:16 51°38.306 2°48.863 30.6 9.4 26 36.9
2009-09-21 09:37:15 51°38.443 2°48.972 27.9 9.3 24 37.4
2009-09-21 09:38:16 51°38.585 2°49.086 29.9 9.3 29 35.9
2009-09-21 09:39:15 51°38.724 2°49.194 29 9.4 27 35.7
2009-09-21 09:40:16 51°38.865 2°49.313 30.6 9.4 28 35.6
2009-09-21 09:41:16 51°39.005 2°49.422 28.8 9.3 25 35.2
2009-09-21 09:42:16 51°39.147 2°49.53 27.9 9.5 25 36.1
2009-09-21 09:43:15 51°39.288 2°49.632 26.8 9.5 23 36.5
2009-09-21 09:44:15 51°39.434 2°49.728 26 9.5 22 36.9
2009-09-21 09:45:15 51°39.582 2°49.816 23.5 9.5 19 33.3
2009-09-21 09:46:15 51°39.732 2°49.898 22.5 9.7 17 36.8
2009-09-21 09:47:16 51°39.886 2°49.975 23 9.4 17 37.4
2009-09-21 09:48:15 51°40.032 2°50.056 23.6 9.5 20 38.3
2009-09-21 09:49:16 51°40.184 2°50.139 22.3 9.5 18 37.8
2009-09-21 09:50:16 51°40.333 2°50.222 24 9.4 20 33.4
2009-09-21 09:51:15 51°40.479 2°50.304 23.3 9.5 20 38.6
2009-09-21 09:52:16 51°40.631 2°50.392 24.6 9.6 21 36.8
2009-09-21 09:53:15 51°40.78 2°50.473 22.1 9.5 18 39
2009-09-21 09:54:15 51°40.93 2°50.551 23 9.5 19 38.5
2009-09-21 09:55:15 51°41.078 2°50.639 23.7 9.5 20 35.6
2009-09-21 09:56:16 51°41.234 2°50.683 7.1 9.6 358 37
2009-09-21 09:57:15 51°41.391 2°50.622 350.4 10 342 37.4
2009-09-21 09:58:16 51°41.551 2°50.522 348.5 10.1 338 37.4
2009-09-21 09:59:15 51°41.7 2°50.404 340.2 10.3 330 35.4
2009-09-21 10:00:15 51°41.847 2°50.256 338.6 10.4 328 34.1
2009-09-21 10:01:15 51°41.995 2°50.111 339.8 10.4 329 33.5
2009-09-21 10:02:15 51°42.141 2°49.957 334.6 10.6 324 27.5
2009-09-21 10:03:16 51°42.284 2°49.783 335.1 10.6 323 28.7
2009-09-21 10:04:15 51°42.425 2°49.617 334.8 10.6 325 26.3
2009-09-21 10:05:15 51°42.561 2°49.434 325.2 10.9 314 27.9
2009-09-21 10:06:16 51°42.679 2°49.199 313.8 11.3 302 28.9
2009-09-21 10:07:15 51°42.767 2°48.933 307.7 11.5 297 30.6
2009-09-21 10:08:15 51°42.855 2°48.66 308.6 11.5 298 28.9
2009-09-21 10:09:15 51°42.933 2°48.378 296.9 11.8 282 28.9
2009-09-21 10:10:15 51°42.91 2°48.062 253.2 12.4 246 33.3
2009-09-21 10:11:15 51°42.784 2°47.788 229.3 13 226 31
2009-09-21 10:12:15 51°42.635 2°47.535 228.9 13 227 32.6
2009-09-21 10:13:15 51°42.473 2°47.301 217.1 13 214 31
2009-09-21 10:14:16 51°42.281 2°47.139 200.4 12.8 201 36.2
2009-09-21 10:15:16 51°42.083 2°47.008 200.4 12.9 201 37.1
2009-09-21 10:16:16 51°41.886 2°46.868 203.1 13 206 35.3
2009-09-21 10:17:15 51°41.693 2°46.725 204.8 12.9 205 34.4
2009-09-21 10:18:15 51°41.497 2°46.578 202 12.8 203 35.9
2009-09-21 10:19:16 51°41.293 2°46.459 196.8 12.9 199 38.1
2009-09-21 10:20:15 51°41.093 2°46.355 196 12.8 200 34.9
2009-09-21 10:21:15 51°40.89 2°46.247 195.2 12.9 197 37.8
2009-09-21 10:22:16 51°40.683 2°46.135 196.5 12.8 199 37.3
2009-09-21 10:23:16 51°40.481 2°46.026 197.8 12.8 198 35.6
2009-09-21 10:24:16 51°40.278 2°45.91 198.1 12.9 199 36.2
2009-09-21 10:25:16 51°40.074 2°45.8 196.1 12.9 198 31.8
2009-09-21 10:26:16 51°39.871 2°45.693 196.6 12.8 198 36.2
2009-09-21 10:27:16 51°39.67 2°45.58 196.9 12.9 200 33.1
2009-09-21 10:28:15 51°39.47 2°45.467 197.5 12.9 198 36
2009-09-21 10:29:15 51°39.265 2°45.365 194.6 13 198 34.3
2009-09-21 10:30:15 51°39.061 2°45.262 196 13 198 33.4
2009-09-21 10:31:16 51°38.851 2°45.16 196.1 13 195 33.7
2009-09-21 10:32:15 51°38.646 2°45.081 188.3 12.9 191 32.4
2009-09-21 10:33:16 51°38.433 2°45.013 189.5 12.9 193 30.7
2009-09-21 10:34:15 51°38.227 2°44.946 187.9 12.8 190 30.6
2009-09-21 10:35:16 51°38.014 2°44.875 189.3 12.9 192 33.8
2009-09-21 10:36:15 51°37.808 2°44.803 190.6 12.9 193 37.7
2009-09-21 10:37:16 51°37.596 2°44.719 190.4 12.9 192 34.5
2009-09-21 10:38:15 51°37.393 2°44.639 191.9 12.8 194 35.6
2009-09-21 10:39:15 51°37.185 2°44.553 191.5 12.9 193 37.1
2009-09-21 10:40:16 51°36.974 2°44.464 191.6 12.9 194 35.7
2009-09-21 10:41:16 51°36.767 2°44.379 191.5 12.9 196 37.2
2009-09-21 10:42:16 51°36.561 2°44.283 192.9 12.8 195 36.6
2009-09-21 10:43:15 51°36.359 2°44.188 192.2 12.8 195 38.4
2009-09-21 10:44:16 51°36.151 2°44.087 194.5 12.8 197 38.5
2009-09-21 10:45:15 51°35.95 2°43.988 194.1 12.8 198 37.5
2009-09-21 10:46:16 51°35.743 2°43.885 194.5 12.8 198 36.5
2009-09-21 10:47:15 51°35.542 2°43.79 192.1 12.8 197 38.3
2009-09-21 10:48:16 51°35.337 2°43.686 195.6 12.8 197 38.7
2009-09-21 10:49:16 51°35.136 2°43.577 195.2 12.7 198 37.5
2009-09-21 10:50:16 51°34.936 2°43.469 197.2 12.7 199 39.9
2009-09-21 10:51:16 51°34.741 2°43.341 199.9 12.7 202 39.2
2009-09-21 10:52:21 51°34.529 2°43.199 200.8 12.7 202 40.6
2009-09-21 10:53:42 51°34.265 2°43.022 199.9 12.8 201 36.1
2009-09-21 10:54:42 51°34.067 2°42.889 199.3 12.8 200 36.1
2009-09-21 10:55:42 51°33.872 2°42.757 199.8 12.8 203 36.9
2009-09-21 10:56:42 51°33.675 2°42.626 199.5 12.8 203 36.6
2009-09-21 10:57:42 51°33.478 2°42.496 199.7 12.7 202 37
2009-09-21 10:58:42 51°33.281 2°42.362 201.5 12.9 204 34.5
2009-09-21 10:59:42 51°33.083 2°42.226 201.1 12.8 203 35.5
2009-09-21 11:00:42 51°32.899 2°42.06 218.4 12.7 220 35.1
2009-09-21 11:01:42 51°32.742 2°41.83 225 12.8 226 36.7
2009-09-21 11:02:42 51°32.594 2°41.585 228.2 12.8 228 37.2
2009-09-21 11:03:42 51°32.477 2°41.307 243.4 12.5 239 37
2009-09-21 11:04:42 51°32.377 2°41.012 244.5 12.6 241 34.2
2009-09-21 11:05:42 51°32.301 2°40.715 270.7 11.4 268 37.9
2009-09-21 11:06:42 51°32.328 2°40.414 296.1 11.3 290 37.4
2009-09-21 11:07:42 51°32.402 2°40.136 304.1 11.2 298 38.2
2009-09-21 11:08:42 51°32.533 2°39.99 359.1 9.2 356 38.4
2009-09-21 11:09:42 51°32.684 2°40.037 21.1 9.4 19 37.6
2009-09-21 11:10:42 51°32.83 2°40.13 23.3 9.5 22 38.5
2009-09-21 11:11:42 51°32.976 2°40.226 21.9 9.5 20 38.5
2009-09-21 11:12:42 51°33.131 2°40.283 13.3 9.6 11 39.4
2009-09-21 11:13:42 51°33.289 2°40.328 13.9 9.6 11 39.9
2009-09-21 11:14:42 51°33.445 2°40.385 16.6 9.6 13 41.5
2009-09-21 11:15:42 51°33.601 2°40.446 17.2 9.7 15 39.8
2009-09-21 11:16:42 51°33.757 2°40.503 15.7 9.7 12 39.3
2009-09-21 11:17:42 51°33.913 2°40.563 17.7 9.6 15 38.1
2009-09-21 11:18:42 51°34.068 2°40.635 18.7 9.6 17 38.2
2009-09-21 11:19:42 51°34.222 2°40.709 18.7 9.7 17 38
2009-09-21 11:20:42 51°34.377 2°40.785 18.9 9.7 17 37.3
2009-09-21 11:21:42 51°34.533 2°40.858 17.5 9.8 16 38.8
2009-09-21 11:22:42 51°34.69 2°40.927 16.8 9.7 15 37.2
2009-09-21 11:23:42 51°34.846 2°40.997 18.3 9.8 16 34.7
2009-09-21 11:24:42 51°35.003 2°41.072 19.1 9.8 17 36
2009-09-21 11:25:42 51°35.159 2°41.15 19 9.8 17 34.2
2009-09-21 11:26:42 51°35.315 2°41.229 20.4 9.8 18 37.2
2009-09-21 11:27:42 51°35.47 2°41.319 22.1 9.9 20 33.9
2009-09-21 11:28:42 51°35.625 2°41.416 22.3 10 21 35.5
2009-09-21 11:29:42 51°35.783 2°41.512 21.7 10.2 20 35.9
2009-09-21 11:30:42 51°35.94 2°41.604 21.5 10.1 19 35
2009-09-21 11:31:42 51°36.099 2°41.698 21.8 10.3 20 34.7
2009-09-21 11:32:42 51°36.257 2°41.795 21.9 10.2 20 35.4
2009-09-21 11:33:42 51°36.415 2°41.888 21 10.1 19 36.3
2009-09-21 11:34:42 51°36.573 2°41.984 21.2 10.2 20 35.6
2009-09-21 11:35:42 51°36.731 2°42.077 21.6 10.1 21 36
2009-09-21 11:36:42 51°36.89 2°42.168 21.1 10.1 19 36.6
2009-09-21 11:37:42 51°37.047 2°42.253 19.7 9.9 18 36.2
2009-09-21 11:38:42 51°37.204 2°42.339 20.1 10 18 36
2009-09-21 11:39:42 51°37.36 2°42.427 21.1 10 20 36.2
2009-09-21 11:40:42 51°37.516 2°42.517 20.4 9.9 18 36.8
2009-09-21 11:41:42 51°37.673 2°42.604 22.4 10 21 36.7
2009-09-21 11:42:42 51°37.83 2°42.699 21.6 10.1 20 37.2
2009-09-21 11:43:42 51°37.988 2°42.788 21.7 10.1 20 36.5
2009-09-21 11:44:42 51°38.146 2°42.878 21.9 10.1 20 36.7
2009-09-21 11:45:42 51°38.304 2°42.969 21.6 10.1 20 36.7
2009-09-21 11:46:42 51°38.463 2°43.059 20.8 10.1 19 36.1
2009-09-21 11:47:42 51°38.623 2°43.142 19.8 10.2 17 36.6
2009-09-21 11:48:42 51°38.783 2°43.231 22 10.2 19 36.9
2009-09-21 11:49:42 51°38.944 2°43.32 21.8 10.2 19 37.1
2009-09-21 11:50:42 51°39.104 2°43.41 21.9 10.2 20 36.6
2009-09-21 11:51:42 51°39.265 2°43.5 21.7 10.2 19 37
2009-09-21 11:52:42 51°39.426 2°43.584 20.7 10.2 18 36.6
2009-09-21 11:53:42 51°39.585 2°43.676 22.1 10.2 20 36.6
2009-09-21 11:54:45 51°39.754 2°43.771 21.9 10.3 19 37.3
2009-09-21 11:55:46 51°39.92 2°43.862 19.6 10.4 18 36.1
2009-09-21 11:56:46 51°40.084 2°43.952 22.2 10.4 19 36.8
2009-09-21 11:57:46 51°40.248 2°44.043 21.7 10.5 19 36.6
2009-09-21 11:58:46 51°40.412 2°44.135 20.5 10.4 19 36
2009-09-21 11:59:46 51°40.578 2°44.205 12 10.5 9 37
2009-09-21 12:00:46 51°40.752 2°44.237 9.5 10.5 5 38.1
2009-09-21 12:01:46 51°40.926 2°44.265 9.9 10.5 6 38.2
2009-09-21 12:02:46 51°41.099 2°44.303 10.9 10.5 8 38.6
2009-09-21 12:03:46 51°41.273 2°44.331 8.3 10.6 6 36.5
2009-09-21 12:04:46 51°41.447 2°44.367 11.4 10.6 8 38
2009-09-21 12:05:46 51°41.622 2°44.403 8.9 10.5 6 36.8
2009-09-21 12:06:46 51°41.795 2°44.438 11.1 10.5 8 34.8
2009-09-21 12:07:46 51°41.967 2°44.478 9.4 10.5 6 38.5
2009-09-21 12:08:46 51°42.142 2°44.519 11.2 10.5 8 39.3
2009-09-21 12:09:46 51°42.317 2°44.559 10.6 10.6 8 37.8
2009-09-21 12:10:46 51°42.491 2°44.598 9.4 10.6 6 37.5
2009-09-21 12:11:46 51°42.665 2°44.638 10.8 10.6 9 36.1
2009-09-21 12:12:46 51°42.84 2°44.661 358.6 10.4 352 38
2009-09-21 12:13:46 51°43.011 2°44.597 347.4 10.6 344 37.6
2009-09-21 12:14:46 51°43.17 2°44.477 332.7 10.6 327 37.9
2009-09-21 12:15:46 51°43.315 2°44.316 322.7 10.5 317 36.6
2009-09-21 12:16:46 51°43.39 2°44.069 283.7 10.7 278 34.2
2009-09-21 12:17:46 51°43.366 2°43.789 246.7 10.9 242 39.2
2009-09-21 12:18:46 51°43.234 2°43.584 217.4 11.3 211 37.6
2009-09-21 12:19:46 51°43.051 2°43.496 196.8 11.6 195 33.5
2009-09-21 12:20:46 51°42.867 2°43.396 204.2 11.7 202 35.3
2009-09-21 12:21:46 51°42.689 2°43.277 206.7 11.6 203 34.9
2009-09-21 12:22:46 51°42.509 2°43.162 204.7 11.6 201 37
2009-09-21 12:23:46 51°42.327 2°43.053 202.5 11.7 198 31.9
2009-09-21 12:24:46 51°42.14 2°42.965 198.3 11.7 194 38.4
2009-09-21 12:25:46 51°41.953 2°42.884 199.5 11.5 197 36.2
2009-09-21 12:26:46 51°41.769 2°42.792 200.6 11.7 198 33.1
2009-09-21 12:27:46 51°41.585 2°42.697 201.8 11.6 197 34.6
2009-09-21 12:28:46 51°41.401 2°42.598 202.3 11.6 200 35.3
2009-09-21 12:29:46 51°41.218 2°42.504 199.8 11.6 197 34.4
2009-09-21 12:30:46 51°41.035 2°42.413 202.1 11.6 198 31.6
2009-09-21 12:31:46 51°40.853 2°42.321 201.6 11.5 197 31.2
2009-09-21 12:32:46 51°40.671 2°42.224 200.8 11.4 199 34.4
2009-09-21 12:33:46 51°40.489 2°42.132 200.6 11.4 198 30.7
2009-09-21 12:34:46 51°40.308 2°42.044 201.1 11.3 196 32.2
2009-09-21 12:35:46 51°40.128 2°41.957 201.7 11.3 198 31.2
2009-09-21 12:36:46 51°39.948 2°41.866 202.6 11.3 199 29.6
2009-09-21 12:37:46 51°39.769 2°41.767 203.1 11.3 199 26.3
2009-09-21 12:38:46 51°39.591 2°41.675 201.9 11.2 198 29.7
2009-09-21 12:39:46 51°39.412 2°41.585 202 11.2 198 28.7
2009-09-21 12:40:46 51°39.234 2°41.491 202.8 11.2 199 21.2
2009-09-21 12:41:46 51°39.057 2°41.405 201.5 11.1 196 19.8
2009-09-21 12:42:46 51°38.881 2°41.322 203.8 11 198 24.1
2009-09-21 12:43:46 51°38.704 2°41.233 201.7 11.2 197 24.6
2009-09-21 12:44:46 51°38.528 2°41.144 201.9 11 198 25.2
2009-09-21 12:45:46 51°38.354 2°41.054 202.2 11 198 28.1
2009-09-21 12:46:46 51°38.181 2°40.963 203.7 10.8 199 23.1
2009-09-21 12:47:46 51°38.012 2°40.858 205.9 10.9 201 23.4
2009-09-21 12:48:46 51°37.843 2°40.753 205.9 10.9 202 25.8
2009-09-21 12:49:46 51°37.676 2°40.643 205.8 10.8 202 23.4
2009-09-21 12:50:46 51°37.508 2°40.541 205.4 10.7 200 25.5
2009-09-21 12:51:46 51°37.342 2°40.435 206.8 10.7 201 26.8
2009-09-21 12:52:46 51°37.175 2°40.333 204.9 10.7 200 28.2
2009-09-21 12:53:46 51°37.009 2°40.228 204.9 10.7 201 28.5
2009-09-21 12:54:46 51°36.844 2°40.123 205.5 10.7 201 29.2
2009-09-21 12:55:46 51°36.678 2°40.015 204.9 10.7 200 30.6
2009-09-21 12:56:46 51°36.51 2°39.918 202.6 10.8 197 30.7
2009-09-21 12:57:46 51°36.342 2°39.827 202.1 10.7 199 31
2009-09-21 12:58:46 51°36.173 2°39.74 201.5 10.7 200 31.8
2009-09-21 12:59:46 51°36.004 2°39.648 202.3 10.7 199 32.5
2009-09-21 13:00:46 51°35.837 2°39.556 202.8 10.6 200 33
2009-09-21 13:01:46 51°35.669 2°39.466 202.6 10.6 200 34.1
2009-09-21 13:02:46 51°35.502 2°39.374 202.5 10.6 198 34.2
2009-09-21 13:03:46 51°35.336 2°39.285 202.6 10.5 201 34
2009-09-21 13:04:46 51°35.17 2°39.198 201.8 10.5 200 34.9
2009-09-21 13:05:46 51°35.004 2°39.111 201.7 10.4 197 34.7
2009-09-21 13:06:46 51°34.84 2°39.019 203.2 10.5 198 35.2
2009-09-21 13:07:46 51°34.675 2°38.929 202.6 10.4 197 34
2009-09-21 13:08:46 51°34.509 2°38.846 201.8 10.5 197 34.3
2009-09-21 13:09:46 51°34.347 2°38.751 205.4 10.4 202 34.3
2009-09-21 13:10:46 51°34.186 2°38.651 203.9 10.4 200 33.4
2009-09-21 13:11:46 51°34.025 2°38.555 203.2 10.3 199 32.6
2009-09-21 13:12:46 51°33.864 2°38.459 204.5 10.3 199 33.4
2009-09-21 13:13:46 51°33.703 2°38.363 204 10.3 200 32.9
2009-09-21 13:14:46 51°33.543 2°38.265 203.5 10.3 201 32.9
2009-09-21 13:15:46 51°33.384 2°38.167 204.7 10.2 202 32.8
2009-09-21 13:16:46 51°33.223 2°38.07 204 10.3 199 32.3
2009-09-21 13:17:46 51°33.062 2°37.975 203.6 10.4 200 31.9
2009-09-21 13:18:46 51°32.9 2°37.882 203.6 10.3 200 31.3
2009-09-21 13:19:46 51°32.74 2°37.784 204.8 10.3 201 31
2009-09-21 13:20:46 51°32.577 2°37.695 200.7 10.3 196 30.7
2009-09-21 13:21:46 51°32.413 2°37.617 200.3 10.4 196 30.6
2009-09-21 13:22:46 51°32.249 2°37.537 201.9 10.2 198 29.7
2009-09-21 13:23:46 51°32.086 2°37.454 201.1 10.3 196 28.9
2009-09-21 13:24:46 51°31.922 2°37.375 200.7 10.2 198 28
2009-09-21 13:25:46 51°31.758 2°37.299 200.1 10.3 196 27.5
2009-09-21 13:26:46 51°31.594 2°37.219 201.3 10.2 199 27.5
2009-09-21 13:27:46 51°31.431 2°37.137 201.9 10.2 199 28.9
2009-09-21 13:28:46 51°31.268 2°37.053 202.2 10.3 199 29.6
2009-09-21 13:29:46 51°31.104 2°36.975 200.5 10.2 196 30.1
2009-09-21 13:30:46 51°30.94 2°36.899 199.9 10.2 196 30.2
2009-09-21 13:31:46 51°30.777 2°36.822 201.1 10.2 197 30
2009-09-21 13:32:46 51°30.614 2°36.744 201.7 10.2 199 30.1
2009-09-21 13:33:46 51°30.451 2°36.667 201 10.2 196 30.4
2009-09-21 13:34:46 51°30.288 2°36.59 201.3 10.1 196 30.7
2009-09-21 13:35:46 51°30.125 2°36.516 199.4 10.1 193 29.2
2009-09-21 13:36:46 51°29.96 2°36.462 197 10.2 191 31.2
2009-09-21 13:37:46 51°29.794 2°36.409 196.8 10.2 192 32.9
2009-09-21 13:38:46 51°29.629 2°36.352 198.6 10.2 192 31
2009-09-21 13:39:46 51°29.463 2°36.299 196.7 10.2 191 32.3
2009-09-21 13:40:46 51°29.297 2°36.245 197.2 10.2 192 30
2009-09-21 13:41:46 51°29.13 2°36.198 196.8 10.2 190 33
2009-09-21 13:42:46 51°28.963 2°36.149 197.7 10.1 191 28.5
2009-09-21 13:43:46 51°28.798 2°36.1 197.2 10.1 191 31.1
2009-09-21 13:44:46 51°28.632 2°36.125 168.2 10.8 159 27.6
2009-09-21 13:45:46 51°28.477 2°36.29 148.6 11.6 139 30.6
2009-09-21 13:46:46 51°28.338 2°36.509 144.6 11.7 136 36.1
2009-09-21 13:47:46 51°28.201 2°36.729 144.5 11.7 135 38.6
2009-09-21 13:48:46 51°28.065 2°36.95 142.5 11.8 132 38.8
2009-09-21 13:49:46 51°27.93 2°37.009 218.8 7.6 227 38
2009-09-21 13:50:46 51°27.919 2°36.78 269.6 9.7 277 37.9
2009-09-21 13:51:46 51°27.982 2°36.53 294 10.5 302 37.8
2009-09-21 13:52:46 51°28.081 2°36.295 296.2 10.6 304 33.7
2009-09-21 13:53:46 51°28.178 2°36.06 297.3 10.6 306 28.6
2009-09-21 13:54:46 51°28.277 2°35.829 297.3 10.6 306 30.5
2009-09-21 13:55:46 51°28.393 2°35.611 303.5 10.8 311 33
2009-09-21 13:56:46 51°28.519 2°35.401 305.3 11 316 35.7
2009-09-21 13:57:46 51°28.599 2°35.181 264.9 8.5 268 37.6
2009-09-21 13:58:46 51°28.509 2°35.043 200 8.8 190 37.4
2009-09-21 13:59:46 51°28.353 2°35.093 166.6 10.3 154 37
2009-09-21 14:00:46 51°28.212 2°35.277 142.3 11.3 132 35.3
2009-09-21 14:01:46 51°28.092 2°35.518 137.1 11.9 126 25.6
2009-09-21 14:02:46 51°27.992 2°35.796 124.7 12.2 117 29.5
2009-09-21 14:03:46 51°27.906 2°36.093 122 12.4 113 34.2
2009-09-21 14:04:46 51°27.822 2°36.391 121.1 12.2 113 37.3
2009-09-21 14:05:46 51°27.741 2°36.688 121.6 12.2 113 37.3
2009-09-21 14:06:46 51°27.659 2°36.986 122.9 12.2 114 36
2009-09-21 14:07:46 51°27.578 2°37.284 122.6 12.2 113 34.9
2009-09-21 14:08:46 51°27.492 2°37.576 127.6 12.1 117 34.4
2009-09-21 14:09:46 51°27.4 2°37.863 128.6 12.1 118 35.2
2009-09-21 14:10:46 51°27.294 2°38.129 135.8 11.8 124 35.4
2009-09-21 14:11:46 51°27.175 2°38.372 144.5 11.3 134 35.2
2009-09-21 14:12:46 51°27.042 2°38.587 146.6 11.4 135 35.5
2009-09-21 14:13:46 51°26.906 2°38.801 146.4 11.5 135 35.9
2009-09-21 14:14:46 51°26.768 2°39.012 146.7 11.4 136 34.9
2009-09-21 14:15:46 51°26.631 2°39.225 145.9 11.6 133 34.9
2009-09-21 14:16:46 51°26.497 2°39.446 144.1 11.6 134 35.5
2009-09-21 14:17:46 51°26.361 2°39.664 146.2 11.6 135 35.3
2009-09-21 14:18:46 51°26.225 2°39.884 145.5 11.6 136 33
2009-09-21 14:19:46 51°26.087 2°40.101 145.2 11.7 135 33.3
2009-09-21 14:20:46 51°25.953 2°40.319 144.7 11.4 134 33
2009-09-21 14:21:46 51°25.823 2°40.54 144.9 11.4 134 32
2009-09-21 14:22:46 51°25.691 2°40.759 144.3 11.4 134 29.7
2009-09-21 14:23:46 51°25.557 2°40.973 144.9 11.4 136 29.8
2009-09-21 14:24:46 51°25.423 2°41.186 144.6 11.4 135 28.5
2009-09-21 14:25:46 51°25.289 2°41.398 145.1 11.4 135 27.9
2009-09-21 14:26:46 51°25.154 2°41.61 145.2 11.3 137 29.5
2009-09-21 14:27:46 51°25.02 2°41.822 144.5 11.3 137 29.1
2009-09-21 14:28:46 51°24.886 2°42.032 146.7 11.2 137 25.8
2009-09-21 14:29:46 51°24.75 2°42.24 146 11.2 135 26.3
2009-09-21 14:30:46 51°24.615 2°42.451 145.6 11.4 135 27.9
2009-09-21 14:31:46 51°24.48 2°42.663 144.6 11.3 134 20.4
2009-09-21 14:32:46 51°24.346 2°42.876 145.4 11.4 137 26
2009-09-21 14:33:46 51°24.21 2°43.092 144.3 11.6 133 21.3
2009-09-21 14:34:46 51°24.074 2°43.305 148.3 11.3 138 27.7
2009-09-21 14:35:46 51°23.929 2°43.498 151 11.3 141 29.5
2009-09-21 14:36:46 51°23.782 2°43.689 150.4 11.2 142 28.9
2009-09-21 14:37:46 51°23.634 2°43.879 151.5 11.4 141 28.5
2009-09-21 14:38:46 51°23.488 2°44.072 151.1 11.4 141 29.6
2009-09-21 14:39:46 51°23.342 2°44.265 150.3 11.4 141 30.3
2009-09-21 14:40:46 51°23.195 2°44.454 150.4 11.4 141 29.8
2009-09-21 14:41:46 51°23.049 2°44.644 149.4 11.3 141 28.7
2009-09-21 14:42:46 51°22.901 2°44.832 150.8 11.3 141 28.5
2009-09-21 14:43:46 51°22.753 2°45.014 150.2 11.3 140 27.6
2009-09-21 14:44:46 51°22.605 2°45.199 149.9 11.2 143 28.2
2009-09-21 14:45:46 51°22.457 2°45.382 151.1 11.3 143 27
2009-09-21 14:46:46 51°22.307 2°45.563 151.2 11.3 143 24.7
2009-09-21 14:47:46 51°22.159 2°45.747 149.7 11.3 141 24.2
2009-09-21 14:48:46 51°22.003 2°45.901 159.9 11 151 23.8
2009-09-21 14:49:46 51°21.842 2°46.035 161.2 10.9 152 25.1
2009-09-21 14:50:46 51°21.682 2°46.176 160.1 11 151 27.1
2009-09-21 14:51:46 51°21.523 2°46.318 159.1 11.2 146 27.9
2009-09-21 14:52:46 51°21.369 2°46.484 155.4 11.1 146 28
2009-09-21 14:53:46 51°21.217 2°46.656 155 11.2 145 25.5
2009-09-21 14:54:46 51°21.071 2°46.849 149.2 11.5 138 23.2
2009-09-21 14:55:46 51°20.925 2°47.041 150.6 11.4 142 22
2009-09-21 14:56:46 51°20.777 2°47.235 147.1 11.6 138 20.9
2009-09-21 14:57:46 51°20.636 2°47.442 144.9 11.6 138 20.8
2009-09-21 14:58:46 51°20.497 2°47.652 144.1 11.5 137 21.8
2009-09-21 14:59:46 51°20.355 2°47.858 145.7 11.5 138 23.4
2009-09-21 15:00:46 51°20.216 2°48.068 144.7 11.5 137 24.6
2009-09-21 15:01:46 51°20.079 2°48.281 143.1 11.5 136 24.8
2009-09-21 15:02:46 51°19.941 2°48.492 143.9 11.5 136 24.7
2009-09-21 15:03:46 51°19.807 2°48.707 143.9 11.4 135 23.1
2009-09-21 15:04:46 51°19.673 2°48.922 143.7 11.4 134 20.8
2009-09-21 15:05:46 51°19.54 2°49.137 144.4 11.3 135 19
2009-09-21 15:06:46 51°19.405 2°49.349 145.6 11.4 136 17
2009-09-21 15:07:46 51°19.268 2°49.562 143.8 11.5 135 15.3
2009-09-21 15:08:46 51°19.131 2°49.772 143.8 11.4 137 13.8
2009-09-21 15:09:46 51°18.994 2°49.982 142.3 11.4 134 14.6
2009-09-21 15:10:46 51°18.86 2°50.195 142.4 11.4 136 15.9
2009-09-21 15:11:46 51°18.726 2°50.409 142.6 11.4 135 16.8
2009-09-21 15:12:46 51°18.591 2°50.625 143.8 11.5 135 16.9
2009-09-21 15:13:46 51°18.456 2°50.835 144.6 11.2 138 16.4
2009-09-21 15:14:46 51°18.319 2°51.04 145 11.4 136 15.8
2009-09-21 15:15:46 51°18.183 2°51.243 144.2 11.1 138 14.7
2009-09-21 15:16:46 51°18.041 2°51.427 150.2 10.9 143 13.6
2009-09-21 15:17:46 51°17.896 2°51.601 151.5 10.9 145 12.7
2009-09-21 15:18:46 51°17.746 2°51.758 153.9 10.7 148 12.7
2009-09-21 15:19:46 51°17.596 2°51.912 154.4 10.7 148 12.9
2009-09-21 15:20:46 51°17.445 2°52.068 154.7 10.8 150 13.8
2009-09-21 15:21:46 51°17.292 2°52.217 157.2 10.8 148 13.7
2009-09-21 15:22:46 51°17.135 2°52.357 157.6 10.9 149 12.6
2009-09-21 15:23:46 51°16.977 2°52.497 157.2 10.9 149 12.2
2009-09-21 15:24:46 51°16.822 2°52.646 156.9 10.8 148 12.2
2009-09-21 15:25:46 51°16.668 2°52.797 158.2 11 150 13.5
2009-09-21 15:26:46 51°16.512 2°52.949 156.9 10.9 148 14.1
2009-09-21 15:27:46 51°16.357 2°53.099 158.5 10.9 151 14.4
2009-09-21 15:28:46 51°16.2 2°53.248 157.1 11.1 149 14.3
2009-09-21 15:29:46 51°16.043 2°53.398 157.8 11 151 14.1
2009-09-21 15:30:46 51°15.883 2°53.544 157.4 11.1 148 13.9
2009-09-21 15:31:46 51°15.724 2°53.694 158.4 11.1 150 13.5
2009-09-21 15:32:46 51°15.593 2°53.82 158.5 7 147 13.5
2009-09-21 15:33:46 51°15.512 2°53.902 157.8 5.2 146 13.6
2009-09-21 15:34:46 51°15.441 2°53.984 156.6 5.7 145 13.6
2009-09-21 15:35:46 51°15.351 2°54.08 156.2 7 146 13.4
2009-09-21 15:36:46 51°15.251 2°54.186 157.4 7.5 148 13.3
2009-09-21 15:37:46 51°15.141 2°54.292 157.7 7.8 149 13
2009-09-21 15:38:46 51°15.029 2°54.399 158 8.1 149 12.8
2009-09-21 15:39:46 51°14.901 2°54.522 157.3 9.6 150 12.3
2009-09-21 15:40:46 51°14.755 2°54.66 157.6 10.7 150 12.1
2009-09-21 15:41:46 51°14.598 2°54.806 154.7 11 147 12
2009-09-21 15:42:46 51°14.442 2°54.964 152 11.2 145 12.6
2009-09-21 15:43:46 51°14.309 2°55.168 132.7 11.2 132 13
2009-09-21 15:44:46 51°14.19 2°55.357 141 8.4 142 13.4
2009-09-21 15:45:46 51°14.076 2°55.452 155.7 7.6 156 13.4
2009-09-21 15:46:46 51°13.966 2°55.529 157.6 6.8 157 13.6
2009-09-21 15:47:46 51°13.865 2°55.601 156.1 6.4 155 13.6
2009-09-21 15:48:46 51°13.775 2°55.678 145 5.9 144 13.9
2009-09-21 15:49:46 51°13.72 2°55.778 127.1 4.6 127 15.1
2009-09-21 15:50:46 51°13.683 2°55.871 115.7 3.6 115 11.7
2009-09-21 15:51:50 51°13.668 2°55.941 111.2 1.7 109 12.3
2009-09-21 15:52:50 51°13.663 2°55.958 129.7 0.3 134 -999
2009-09-21 15:53:50 51°13.662 2°55.958 130.7 -999 268 -999
2009-09-21 15:54:50 51°13.663 2°55.958 130.7 -999 155 -999